createdAt,value
2018-04-16T05:02:09.188Z,87.10
2018-04-16T05:04:36.584Z,86.79
2018-04-16T05:07:03.985Z,86.20
2018-04-16T05:09:31.382Z,85.93
2018-04-16T05:11:58.775Z,85.83
2018-04-16T05:14:26.168Z,85.32
2018-04-16T05:16:53.557Z,85.42
2018-04-16T05:19:21.014Z,85.39
2018-04-16T05:21:48.388Z,85.39
2018-04-16T05:24:15.776Z,85.80
2018-04-16T05:26:43.172Z,85.85
2018-04-16T05:29:10.584Z,85.86
2018-04-16T05:31:37.949Z,85.82
2018-04-16T05:34:05.344Z,85.73
2018-04-16T05:36:32.715Z,86.08
2018-04-16T05:39:00.116Z,86.05
2018-04-16T05:41:27.502Z,85.62
2018-04-16T05:43:54.905Z,85.24
2018-04-16T05:46:22.294Z,85.08
2018-04-16T05:48:49.688Z,84.59
2018-04-16T05:51:17.078Z,84.31
2018-04-16T05:53:44.464Z,84.39
2018-04-16T05:56:12.152Z,84.55
2018-04-16T05:58:39.556Z,84.73
2018-04-16T06:01:06.944Z,85.41
2018-04-16T06:03:34.336Z,85.20
2018-04-16T06:06:01.728Z,84.68
2018-04-16T06:08:29.111Z,83.80
2018-04-16T06:10:56.512Z,84.00
2018-04-16T06:13:23.898Z,84.30
2018-04-16T06:15:51.276Z,84.66
2018-04-16T06:18:18.662Z,84.56
2018-04-16T06:20:46.060Z,83.99
2018-04-16T06:23:13.463Z,83.82
2018-04-16T06:25:40.851Z,83.68
2018-04-16T06:28:08.237Z,83.29
2018-04-16T06:30:35.635Z,83.03
2018-04-16T06:33:03.028Z,81.97
2018-04-16T06:35:30.422Z,81.57
2018-04-16T06:37:57.814Z,81.22
2018-04-16T06:40:25.218Z,82.27
2018-04-16T06:42:52.592Z,81.97
2018-04-16T06:45:19.993Z,81.02
2018-04-16T06:47:47.382Z,80.41
2018-04-16T06:50:14.786Z,80.18
2018-04-16T06:52:42.192Z,79.86
2018-04-16T06:55:09.576Z,79.43
2018-04-16T06:57:36.957Z,79.06
2018-04-16T07:00:04.406Z,78.56
2018-04-16T07:02:31.908Z,77.79
2018-04-16T07:04:59.299Z,77.10
2018-04-16T07:07:26.682Z,76.79
2018-04-16T07:09:54.073Z,76.93
2018-04-16T07:12:21.475Z,76.96
2018-04-16T07:14:48.840Z,76.78
2018-04-16T07:17:16.243Z,76.31
2018-04-16T07:19:43.636Z,76.10
2018-04-16T07:22:11.032Z,75.92
2018-04-16T07:24:38.409Z,74.64
2018-04-16T07:27:05.832Z,75.31
2018-04-16T07:29:33.227Z,76.08
2018-04-16T07:32:00.613Z,74.04
2018-04-16T07:34:27.996Z,73.76
2018-04-16T07:36:55.381Z,73.32
2018-04-16T07:39:22.761Z,73.44
2018-04-16T07:41:50.148Z,73.48
2018-04-16T07:44:17.533Z,73.02
2018-04-16T07:46:44.917Z,70.88
2018-04-16T07:49:12.305Z,69.97
2018-04-16T07:51:39.701Z,70.23
2018-04-16T07:54:07.081Z,69.57
2018-04-16T07:56:34.465Z,66.98
2018-04-16T07:59:01.848Z,65.87
2018-04-16T08:01:29.303Z,64.71
2018-04-16T08:03:56.629Z,66.15
2018-04-16T08:06:24.021Z,63.74
2018-04-16T08:08:51.406Z,62.87
2018-04-16T08:11:18.808Z,61.53
2018-04-16T08:13:46.208Z,61.80
2018-04-16T08:16:13.607Z,60.47
2018-04-16T08:18:40.996Z,58.35
2018-04-16T08:21:08.386Z,58.62
2018-04-16T08:23:35.775Z,58.98
2018-04-16T08:26:03.155Z,56.78
2018-04-16T08:28:30.552Z,55.41
2018-04-16T08:30:57.941Z,55.41
2018-04-16T08:33:25.324Z,55.39
2018-04-16T08:35:52.712Z,53.46
2018-04-16T08:38:20.101Z,54.38
2018-04-16T08:40:47.485Z,54.07
2018-04-16T08:43:14.883Z,53.31
2018-04-16T08:45:42.270Z,51.48
2018-04-16T08:48:09.660Z,52.44
2018-04-16T08:50:37.045Z,52.84
2018-04-16T08:53:04.436Z,53.23
2018-04-16T08:55:31.812Z,50.30
2018-04-16T08:57:59.210Z,52.31
2018-04-16T09:00:26.709Z,50.61
2018-04-16T09:02:54.095Z,49.60
2018-04-16T09:05:21.502Z,47.86
2018-04-16T09:07:48.896Z,48.96
2018-04-16T09:10:16.278Z,49.29
2018-04-16T09:12:43.668Z,49.46
2018-04-16T09:15:11.059Z,51.32
2018-04-16T09:17:38.450Z,46.21
2018-04-16T09:20:05.835Z,47.71
2018-04-16T09:22:33.212Z,46.12
2018-04-16T09:25:00.611Z,44.66
2018-04-16T09:27:27.993Z,45.22
2018-04-16T09:29:55.392Z,44.89
2018-04-16T09:32:23.229Z,45.14
2018-04-16T09:34:50.621Z,47.49
2018-04-16T09:37:18.004Z,46.36
2018-04-16T09:39:45.396Z,41.24
2018-04-16T09:42:12.776Z,42.30
2018-04-16T09:44:40.160Z,40.00
2018-04-16T09:47:07.550Z,41.40
2018-04-16T09:49:34.958Z,41.01
2018-04-16T09:52:02.330Z,40.56
2018-04-16T09:54:29.733Z,41.33
2018-04-16T09:56:57.113Z,41.27
2018-04-16T09:59:24.505Z,41.67
2018-04-16T10:01:51.898Z,43.48
2018-04-16T10:04:19.296Z,41.97
2018-04-16T10:06:46.674Z,41.49
2018-04-16T10:09:14.074Z,45.00
2018-04-16T10:11:41.511Z,40.76
2018-04-16T10:14:08.888Z,42.95
2018-04-16T10:16:36.267Z,39.40
2018-04-16T10:19:03.660Z,39.42
2018-04-16T10:21:31.056Z,42.28
2018-04-16T10:23:58.447Z,42.28
2018-04-16T10:26:25.825Z,43.21
2018-04-16T10:28:53.228Z,40.96
2018-04-16T10:31:20.616Z,40.52
2018-04-16T10:33:48.001Z,40.79
2018-04-16T10:36:15.393Z,39.60
2018-04-16T10:38:42.785Z,39.23
2018-04-16T10:41:10.173Z,41.97
2018-04-16T10:43:37.553Z,41.98
2018-04-16T10:46:04.946Z,40.46
2018-04-16T10:48:32.319Z,41.19
2018-04-16T10:50:59.713Z,40.57
2018-04-16T10:53:27.088Z,42.39
2018-04-16T10:55:54.476Z,40.23
2018-04-16T10:58:21.926Z,41.51
2018-04-16T11:00:49.312Z,41.56
2018-04-16T11:03:16.678Z,42.06
2018-04-16T11:05:44.069Z,42.37
2018-04-16T11:08:11.460Z,43.33
2018-04-16T11:10:38.849Z,43.47
2018-04-16T11:13:06.244Z,44.14
2018-04-16T11:15:33.613Z,43.20
2018-04-16T11:18:01.008Z,43.50
2018-04-16T11:20:28.409Z,42.12
2018-04-16T11:22:55.820Z,42.24
2018-04-16T11:25:23.225Z,41.03
2018-04-16T11:27:50.614Z,39.96
2018-04-16T11:30:17.985Z,39.85
2018-04-16T11:32:45.388Z,39.11
2018-04-16T11:35:12.779Z,37.80
2018-04-16T11:37:40.175Z,37.18
2018-04-16T11:40:07.556Z,37.50
2018-04-16T11:42:34.947Z,36.15
2018-04-16T11:45:02.407Z,38.11
2018-04-16T11:47:29.809Z,40.29
2018-04-16T11:49:57.193Z,40.21
2018-04-16T11:52:24.584Z,38.96
2018-04-16T11:54:51.961Z,40.58
2018-04-16T11:57:19.353Z,39.31
2018-04-16T11:59:46.742Z,37.92
2018-04-16T12:02:14.181Z,38.65
2018-04-16T12:04:41.577Z,37.06
2018-04-16T12:07:08.925Z,36.00
2018-04-16T12:09:36.484Z,36.35
2018-04-16T12:12:03.880Z,37.35
2018-04-16T12:14:31.266Z,36.68
2018-04-16T12:16:58.666Z,36.31
2018-04-16T12:19:26.045Z,36.86
2018-04-16T12:21:53.456Z,38.71
2018-04-16T12:24:20.829Z,37.94
2018-04-16T12:26:48.226Z,36.99
2018-04-16T12:29:15.604Z,36.39
2018-04-16T12:31:43.008Z,36.16
2018-04-16T12:34:10.380Z,37.13
2018-04-16T12:36:37.761Z,37.07
2018-04-16T12:39:05.915Z,37.41
2018-04-16T12:41:33.246Z,37.95
2018-04-16T12:44:00.641Z,35.58
2018-04-16T12:46:28.034Z,35.57
2018-04-16T12:48:55.428Z,34.64
2018-04-16T12:51:22.841Z,34.76
2018-04-16T12:53:50.226Z,34.76
2018-04-16T12:56:17.610Z,34.80
2018-04-16T12:58:45.017Z,34.67
2018-04-16T13:01:12.391Z,33.25
2018-04-16T13:03:39.785Z,31.48
2018-04-16T13:06:07.164Z,33.34
2018-04-16T13:08:34.561Z,33.27
2018-04-16T13:11:01.949Z,34.04
2018-04-16T13:13:29.337Z,36.96
2018-04-16T13:15:56.721Z,33.45
2018-04-16T13:18:24.122Z,32.64
2018-04-16T13:20:51.541Z,35.15
2018-04-16T13:23:18.925Z,33.63
2018-04-16T13:25:46.321Z,34.25
2018-04-16T13:28:13.703Z,34.04
2018-04-16T13:30:41.079Z,33.76
2018-04-16T13:33:08.489Z,33.71
2018-04-16T13:35:35.868Z,32.76
2018-04-16T13:38:03.255Z,33.21
2018-04-16T13:40:30.635Z,34.42
2018-04-16T13:42:58.059Z,35.68
2018-04-16T13:45:25.418Z,35.39
2018-04-16T13:47:52.809Z,35.20
2018-04-16T13:50:20.202Z,35.28
2018-04-16T13:52:47.587Z,34.54
2018-04-16T13:55:14.976Z,35.31
2018-04-16T13:57:42.365Z,33.31
2018-04-16T14:00:10.720Z,33.00
2018-04-16T14:02:38.100Z,34.69
2018-04-16T14:05:05.504Z,33.39
2018-04-16T14:07:32.902Z,33.80
2018-04-16T14:10:00.290Z,35.12
2018-04-16T14:12:27.678Z,35.38
2018-04-16T14:14:55.070Z,37.16
2018-04-16T14:17:22.464Z,35.56
2018-04-16T14:19:49.860Z,36.87
2018-04-16T14:22:17.249Z,36.21
2018-04-16T14:24:44.639Z,36.92
2018-04-16T14:27:12.028Z,36.55
2018-04-16T14:29:39.423Z,38.45
2018-04-16T14:32:07.169Z,34.20
2018-04-16T14:34:34.551Z,35.09
2018-04-16T14:37:01.930Z,35.60
2018-04-16T14:39:29.321Z,34.39
2018-04-16T14:41:56.708Z,34.51
2018-04-16T14:44:24.094Z,33.33
2018-04-16T14:46:51.492Z,33.19
2018-04-16T14:49:18.885Z,34.55
2018-04-16T14:51:46.272Z,32.25
2018-04-16T14:54:13.659Z,31.98
2018-04-16T14:56:41.104Z,32.16
2018-04-16T14:59:08.444Z,33.17
2018-04-16T15:01:35.845Z,33.55
2018-04-16T15:04:03.223Z,32.69
2018-04-16T15:06:30.616Z,32.89
2018-04-16T15:08:57.989Z,31.65
2018-04-16T15:11:25.382Z,32.97
2018-04-16T15:13:52.760Z,34.27
2018-04-16T15:16:20.147Z,34.50
2018-04-16T15:18:47.537Z,33.78
2018-04-16T15:21:14.931Z,33.70
2018-04-16T15:23:42.317Z,33.57
2018-04-16T15:26:09.702Z,34.07
2018-04-16T15:28:37.081Z,33.28
2018-04-16T15:31:04.472Z,33.61
2018-04-16T15:33:31.859Z,34.34
2018-04-16T15:35:59.244Z,32.87
2018-04-16T15:38:26.623Z,32.73
2018-04-16T15:40:54.012Z,34.73
2018-04-16T15:43:21.418Z,36.60
2018-04-16T15:45:48.801Z,36.50
2018-04-16T15:48:16.188Z,35.55
2018-04-16T15:50:43.589Z,34.97
2018-04-16T15:53:10.984Z,36.34
2018-04-16T15:55:38.356Z,35.04
2018-04-16T15:58:05.753Z,36.25
2018-04-16T16:00:33.127Z,34.28
2018-04-16T16:03:00.524Z,33.93
2018-04-16T16:05:27.918Z,35.94
2018-04-16T16:07:55.361Z,34.03
2018-04-16T16:10:23.312Z,34.41
2018-04-16T16:12:50.705Z,34.91
2018-04-16T16:15:18.107Z,34.86
2018-04-16T16:17:45.481Z,34.34
2018-04-16T16:20:12.870Z,33.48
2018-04-16T16:22:40.250Z,33.41
2018-04-16T16:25:07.636Z,32.12
2018-04-16T16:27:35.033Z,32.94
2018-04-16T16:30:02.419Z,34.30
2018-04-16T16:32:29.837Z,33.95
2018-04-16T16:34:57.245Z,33.99
2018-04-16T16:37:24.600Z,34.54
2018-04-16T16:39:51.992Z,34.40
2018-04-16T16:42:19.376Z,35.36
2018-04-16T16:44:46.751Z,35.44
2018-04-16T16:47:14.140Z,37.48
2018-04-16T16:49:41.540Z,36.61
2018-04-16T16:52:08.926Z,36.43
2018-04-16T16:54:36.309Z,38.09
2018-04-16T16:57:03.713Z,36.97
2018-04-16T16:59:31.106Z,38.16
2018-04-16T17:01:58.493Z,37.63
2018-04-16T17:04:25.893Z,37.02
2018-04-16T17:06:53.273Z,37.15
2018-04-16T17:09:20.669Z,36.61
2018-04-16T18:08:06.297Z,44.00
2018-04-16T18:10:33.696Z,42.84
2018-04-16T18:13:01.089Z,43.33
2018-04-16T18:15:28.584Z,43.86
2018-04-16T18:17:56.011Z,44.31
2018-04-16T18:20:23.357Z,47.07
2018-04-16T18:22:50.732Z,45.35
2018-04-16T18:25:18.430Z,46.53
2018-04-16T18:27:45.819Z,45.61
2018-04-16T18:30:13.225Z,47.28
2018-04-16T18:32:40.631Z,47.71
2018-04-16T18:35:08.005Z,47.80
2018-04-16T18:37:35.394Z,48.53
2018-04-16T18:40:02.828Z,47.81
2018-04-16T18:42:30.254Z,48.49
2018-04-16T18:44:57.685Z,48.89
2018-04-16T18:47:25.068Z,47.61
2018-04-16T18:49:52.461Z,48.52
2018-04-16T18:52:19.852Z,49.14
2018-04-16T18:54:48.165Z,49.17
2018-04-16T18:57:15.637Z,49.00
2018-04-16T18:59:44.071Z,48.29
2018-04-16T19:02:11.439Z,49.15
2018-04-16T19:04:38.872Z,51.50
2018-04-16T19:07:06.305Z,51.62
2018-04-16T19:12:07.357Z,49.43
2018-04-16T19:14:34.745Z,52.22
2018-04-16T19:17:02.168Z,50.32
2018-04-16T19:19:29.555Z,52.50
2018-04-16T19:21:56.952Z,53.50
2018-04-16T19:24:24.381Z,55.29
2018-04-16T19:26:57.382Z,56.05
2018-04-16T19:29:24.764Z,55.49
2018-04-16T19:31:52.157Z,55.74
2018-04-16T19:34:25.024Z,54.85
2018-04-16T19:36:52.419Z,55.20
2018-04-16T19:39:19.809Z,56.41
2018-04-16T19:41:53.012Z,58.45
2018-04-16T19:44:20.397Z,56.94
2018-04-16T19:46:47.790Z,57.05
2018-04-16T19:49:20.656Z,56.28
2018-04-16T19:51:48.192Z,56.22
2018-04-16T20:54:26.092Z,51.03
2018-04-16T20:56:53.493Z,50.72
2018-04-16T20:59:21.553Z,51.89
2018-04-16T21:01:49.173Z,51.18
2018-04-16T21:04:16.575Z,51.04
2018-04-16T21:06:43.965Z,51.70
2018-04-16T21:09:11.504Z,52.28
2018-04-16T21:11:38.899Z,52.56
2018-04-16T21:14:06.295Z,53.12
2018-04-16T21:16:33.682Z,52.85
2018-04-16T21:19:01.238Z,53.38
2018-04-16T21:21:28.623Z,52.56
2018-04-16T21:23:56.043Z,52.46
2018-04-16T21:26:23.425Z,52.33
2018-04-16T21:28:50.944Z,52.39
2018-04-16T21:31:18.335Z,52.06
2018-04-16T21:33:45.736Z,52.34
2018-04-16T21:36:13.151Z,52.95
2018-04-16T21:38:40.732Z,53.04
2018-04-16T21:41:08.120Z,51.41
2018-04-16T21:43:35.517Z,50.83
2018-04-16T21:46:03.058Z,51.07
2018-04-16T21:48:30.441Z,51.47
2018-04-16T21:50:57.843Z,51.71
2018-04-16T21:53:25.292Z,52.03
2018-04-16T21:55:53.016Z,52.39
2018-04-16T21:58:20.428Z,52.80
2018-04-16T22:02:42.276Z,53.58
2018-04-16T22:05:09.667Z,54.48
2018-04-16T22:07:37.056Z,53.25
2018-04-16T22:10:04.466Z,53.42
2018-04-16T22:12:31.845Z,54.35
2018-04-16T22:14:59.332Z,54.03
2018-04-16T22:17:26.741Z,54.34
2018-04-16T22:19:54.136Z,53.91
2018-04-16T22:22:21.651Z,54.52
2018-04-16T22:24:49.156Z,54.40
2018-04-16T22:27:16.544Z,54.82
2018-04-16T22:29:43.940Z,54.20
2018-04-16T22:32:11.589Z,53.65
2018-04-16T22:34:38.984Z,53.54
2018-04-16T22:37:06.393Z,53.57
2018-04-16T22:39:33.855Z,53.48
2018-04-16T22:42:01.240Z,53.41
2018-04-16T22:44:28.631Z,53.32
2018-04-16T22:46:56.033Z,54.10
2018-04-16T22:49:23.432Z,53.28
2018-04-16T22:51:50.912Z,54.14
2018-04-16T22:54:18.296Z,55.34
2018-04-16T22:56:45.729Z,53.64
2018-04-16T22:59:13.150Z,54.27
2018-04-16T23:01:40.552Z,53.87
2018-04-16T23:04:07.932Z,54.38
2018-04-16T23:06:35.338Z,53.90
2018-04-16T23:09:02.775Z,54.02
2018-04-16T23:11:30.352Z,54.31
2018-04-16T23:13:57.731Z,54.61
2018-04-16T23:16:25.334Z,55.17
2018-04-16T23:18:52.839Z,55.48
2018-04-16T23:21:20.231Z,55.92
2018-04-16T23:23:47.615Z,55.99
2018-04-16T23:26:15.074Z,56.15
2018-04-16T23:28:42.482Z,56.97
2018-04-16T23:31:09.872Z,56.72
2018-04-16T23:33:37.260Z,56.90
2018-04-16T23:36:04.680Z,56.97
2018-04-16T23:38:32.161Z,57.44
2018-04-16T23:40:59.555Z,58.30
2018-04-16T23:43:26.956Z,57.86
2018-04-16T23:45:54.345Z,58.80
2018-04-16T23:48:21.736Z,59.57
2018-04-16T23:50:49.155Z,59.56
2018-04-16T23:53:16.541Z,59.76
2018-04-16T23:55:43.938Z,59.67
2018-04-16T23:58:11.328Z,59.76
